createdAt,value
2022-09-24T00:02:11.705Z,5.85
2022-09-24T00:04:39.884Z,5.03
2022-09-24T00:07:07.555Z,5.75
2022-09-24T00:09:34.964Z,5.45
2022-09-24T00:12:02.694Z,5.18
2022-09-24T00:14:30.284Z,5.95
2022-09-24T00:16:57.586Z,5.03
2022-09-24T00:22:18.362Z,6.43
2022-09-24T00:25:04.370Z,5.50
2022-09-24T00:27:31.727Z,4.80
2022-09-24T00:29:59.022Z,5.00
2022-09-24T00:32:26.529Z,4.78
2022-09-24T00:34:54.523Z,5.05
2022-09-24T00:37:21.871Z,5.13
2022-09-24T00:39:49.235Z,5.03
2022-09-24T00:42:21.503Z,4.93
2022-09-24T00:44:55.261Z,4.60
2022-09-24T00:47:33.941Z,4.40
2022-09-24T00:50:34.128Z,6.28
2022-09-24T00:53:07.670Z,5.22
2022-09-24T00:55:37.520Z,5.82
2022-09-24T00:58:07.559Z,4.88
2022-09-24T01:00:38.222Z,4.88
2022-09-24T01:03:10.701Z,4.60
2022-09-24T01:05:39.321Z,4.63
2022-09-24T01:08:18.267Z,4.90
2022-09-24T01:11:09.303Z,5.25
2022-09-24T01:14:01.738Z,4.72
2022-09-24T01:16:46.951Z,3.78
2022-09-24T01:19:35.435Z,4.60
2022-09-24T01:22:25.511Z,4.38
2022-09-24T01:25:02.904Z,4.32
2022-09-24T01:27:45.257Z,4.32
2022-09-24T01:30:15.634Z,3.90
2022-09-24T01:32:52.579Z,3.60
2022-09-24T01:35:40.460Z,3.67
2022-09-24T01:38:14.292Z,3.97
2022-09-24T01:40:43.937Z,4.60
2022-09-24T01:43:16.684Z,3.40
2022-09-24T01:45:43.923Z,4.38
2022-09-24T01:48:11.675Z,4.05
2022-09-24T01:50:47.431Z,4.97
2022-09-24T01:53:21.950Z,4.60
2022-09-24T01:56:00.052Z,4.23
2022-09-24T01:58:37.238Z,4.57
2022-09-24T02:01:10.993Z,4.75
2022-09-24T02:03:48.570Z,9.40
2022-09-24T02:06:21.201Z,4.38
2022-09-24T02:08:52.320Z,4.57
2022-09-24T02:11:22.571Z,4.75
2022-09-24T02:13:59.674Z,4.60
2022-09-24T02:16:48.407Z,5.25
2022-09-24T02:19:27.064Z,5.15
2022-09-24T02:22:07.099Z,5.07
2022-09-24T02:24:54.126Z,4.75
2022-09-24T02:27:22.212Z,5.28
2022-09-24T02:29:51.600Z,4.75
2022-09-24T02:32:20.905Z,5.32
2022-09-24T02:34:53.051Z,5.38
2022-09-24T02:37:23.418Z,5.15
2022-09-24T02:39:50.729Z,5.00
2022-09-24T02:42:20.379Z,5.95
2022-09-24T02:44:47.876Z,5.70
2022-09-24T02:47:15.290Z,6.25
2022-09-24T02:49:43.548Z,5.68
2022-09-24T02:52:10.565Z,6.10
2022-09-24T02:54:38.463Z,5.10
2022-09-24T02:57:06.108Z,5.25
2022-09-24T02:59:33.072Z,6.40
2022-09-24T03:02:01.243Z,4.85
2022-09-24T03:04:29.624Z,5.35
2022-09-24T03:06:56.846Z,4.85
2022-09-24T03:09:23.996Z,5.43
2022-09-24T03:11:50.992Z,5.45
2022-09-24T03:14:18.301Z,5.00
2022-09-24T03:16:45.397Z,5.25
2022-09-24T03:19:12.601Z,4.95
2022-09-24T03:21:39.683Z,5.53
2022-09-24T03:24:06.896Z,4.88
2022-09-24T03:26:33.931Z,6.40
2022-09-24T03:29:01.290Z,6.82
2022-09-24T03:31:28.321Z,5.47
2022-09-24T03:33:56.077Z,4.45
2022-09-24T03:36:26.102Z,5.72
2022-09-24T03:38:56.705Z,4.60
2022-09-24T03:41:25.598Z,4.28
2022-09-24T03:43:52.744Z,4.03
2022-09-24T03:46:20.000Z,3.63
2022-09-24T03:48:47.713Z,4.07
2022-09-24T03:51:20.315Z,4.32
2022-09-24T03:53:48.356Z,3.88
2022-09-24T03:56:15.781Z,5.93
2022-09-24T03:58:55.166Z,3.70
2022-09-24T04:01:22.345Z,3.80
2022-09-24T04:03:50.398Z,4.90
2022-09-24T04:06:21.986Z,3.50
2022-09-24T04:08:52.163Z,3.97
2022-09-24T04:11:19.189Z,4.22
2022-09-24T04:13:46.326Z,4.95
2022-09-24T04:16:13.475Z,4.53
2022-09-24T04:18:43.350Z,4.50
2022-09-24T04:21:10.399Z,3.97
2022-09-24T04:23:37.341Z,9.05
2022-09-24T04:26:04.747Z,4.00
2022-09-24T04:28:32.262Z,4.03
2022-09-24T04:30:59.724Z,4.43
2022-09-24T04:33:27.223Z,11.45
2022-09-24T04:35:54.469Z,5.32
2022-09-24T04:38:21.691Z,9.18
2022-09-24T04:40:49.752Z,6.82
2022-09-24T04:43:19.303Z,4.60
2022-09-24T04:45:46.828Z,4.80
2022-09-24T04:48:14.415Z,5.47
2022-09-24T04:50:45.721Z,7.22
2022-09-24T04:53:13.946Z,4.82
2022-09-24T04:55:41.896Z,4.05
2022-09-24T04:58:10.004Z,4.85
2022-09-24T05:00:37.423Z,3.88
2022-09-24T05:03:05.118Z,5.70
2022-09-24T05:05:34.232Z,6.03
2022-09-24T05:08:05.064Z,5.18
2022-09-24T05:10:33.442Z,4.70
2022-09-24T05:13:06.385Z,4.97
2022-09-24T05:15:33.954Z,4.10
2022-09-24T05:18:01.181Z,3.95
2022-09-24T05:20:28.477Z,3.65
2022-09-24T05:22:57.392Z,4.13
2022-09-24T05:25:28.810Z,3.55
2022-09-24T05:28:00.090Z,3.00
2022-09-24T05:30:28.538Z,3.53
2022-09-24T05:33:01.021Z,3.38
2022-09-24T05:35:30.029Z,3.03
2022-09-24T05:38:00.853Z,3.20
2022-09-24T05:40:46.601Z,4.13
2022-09-24T05:43:22.397Z,3.83
2022-09-24T05:45:53.869Z,4.55
2022-09-24T05:48:21.654Z,4.35
2022-09-24T05:50:48.633Z,3.40
2022-09-24T05:53:17.987Z,3.08
2022-09-24T05:55:46.558Z,3.55
2022-09-24T05:58:15.413Z,3.25
2022-09-24T06:00:42.789Z,3.03
2022-09-24T06:03:14.894Z,3.00
2022-09-24T06:05:49.993Z,3.47
2022-09-24T06:08:18.876Z,3.35
2022-09-24T06:10:47.549Z,3.72
2022-09-24T06:13:17.992Z,2.95
2022-09-24T06:15:45.964Z,3.92
2022-09-24T06:18:13.862Z,3.33
2022-09-24T06:20:41.218Z,4.85
2022-09-24T06:23:08.861Z,3.15
2022-09-24T06:25:40.593Z,3.22
2022-09-24T06:28:10.637Z,3.65
2022-09-24T06:30:39.553Z,3.50
2022-09-24T06:33:09.944Z,5.38
2022-09-24T06:35:42.502Z,2.97
2022-09-24T06:38:13.480Z,3.08
2022-09-24T06:40:45.798Z,2.97
2022-09-24T06:43:13.856Z,5.20
2022-09-24T06:45:46.181Z,3.25
2022-09-24T06:48:14.967Z,4.47
2022-09-24T06:50:48.974Z,3.13
2022-09-24T06:53:17.190Z,3.72
2022-09-24T06:55:46.464Z,5.18
2022-09-24T06:58:19.252Z,6.03
2022-09-24T07:01:03.081Z,3.15
2022-09-24T07:03:36.403Z,3.42
2022-09-24T07:06:07.045Z,2.92
2022-09-24T07:08:53.321Z,3.33
2022-09-24T07:11:20.596Z,6.57
2022-09-24T07:13:47.924Z,5.90
2022-09-24T07:16:21.979Z,3.60
2022-09-24T07:18:56.030Z,3.58
2022-09-24T07:21:27.905Z,3.03
2022-09-24T07:23:58.439Z,4.38
2022-09-24T07:26:33.055Z,3.45
2022-09-24T07:29:00.688Z,3.58
2022-09-24T07:31:31.218Z,3.90
2022-09-24T07:34:01.770Z,2.95
2022-09-24T07:36:32.713Z,3.13
2022-09-24T07:39:34.242Z,2.42
2022-09-24T07:42:20.402Z,3.08
2022-09-24T07:44:51.959Z,3.38
2022-09-24T07:47:28.187Z,4.78
2022-09-24T07:52:54.980Z,2.80
2022-09-24T07:55:28.046Z,2.38
2022-09-24T07:57:58.292Z,2.47
2022-09-24T08:00:27.656Z,2.95
2022-09-24T08:02:57.611Z,2.92
2022-09-24T08:05:37.003Z,2.10
2022-09-24T08:08:10.890Z,2.08
2022-09-24T08:10:40.759Z,3.90
2022-09-24T08:13:27.916Z,1.80
2022-09-24T08:16:12.265Z,1.92
2022-09-24T08:18:42.262Z,3.42
2022-09-24T08:21:19.392Z,5.47
2022-09-24T08:23:50.179Z,1.92
2022-09-24T08:26:33.298Z,1.73
2022-09-24T08:29:04.026Z,2.28
2022-09-24T08:31:39.276Z,1.48
2022-09-24T08:34:22.317Z,2.25
2022-09-24T08:36:50.464Z,1.70
2022-09-24T08:39:21.752Z,2.25
2022-09-24T08:41:59.421Z,1.50
2022-09-24T08:44:58.588Z,1.52
2022-09-24T08:48:10.605Z,1.60
2022-09-24T08:51:01.016Z,1.77
2022-09-24T08:53:43.308Z,1.80
2022-09-24T08:56:13.217Z,2.17
2022-09-24T08:58:54.384Z,3.60
2022-09-24T09:01:39.856Z,1.95
2022-09-24T09:04:29.028Z,2.45
2022-09-24T09:07:20.614Z,2.47
2022-09-24T09:10:14.188Z,2.60
2022-09-24T09:12:47.024Z,3.28
2022-09-24T09:15:14.377Z,2.92
2022-09-24T09:18:43.583Z,2.17
2022-09-24T09:22:00.249Z,4.78
2022-09-24T09:25:01.274Z,3.35
2022-09-24T09:31:06.279Z,2.25
2022-09-24T09:34:17.704Z,2.28
2022-09-24T09:41:21.391Z,5.20
2022-09-24T09:44:23.920Z,2.20
2022-09-24T09:47:49.224Z,1.88
2022-09-24T09:50:46.489Z,2.03
2022-09-24T09:54:21.065Z,2.75
2022-09-24T09:57:26.718Z,2.22
2022-09-24T10:03:23.235Z,4.63
2022-09-24T10:06:09.992Z,4.18
2022-09-24T10:08:46.253Z,3.60
2022-09-24T10:11:34.561Z,2.17
2022-09-24T10:20:41.115Z,4.55
2022-09-24T10:23:28.629Z,2.17
2022-09-24T10:26:13.391Z,2.40
2022-09-24T10:29:24.852Z,1.70
2022-09-24T10:32:11.149Z,2.65
2022-09-24T10:35:28.662Z,1.73
2022-09-24T10:41:36.011Z,2.40
2022-09-24T10:44:17.860Z,2.63
2022-09-24T10:47:09.389Z,2.00
2022-09-24T10:49:55.978Z,3.33
2022-09-24T10:53:15.143Z,1.75
2022-09-24T10:56:20.474Z,1.63
2022-09-24T10:59:26.791Z,1.65
2022-09-24T11:05:55.639Z,3.00
2022-09-24T11:11:50.590Z,2.22
2022-09-24T11:14:31.944Z,6.68
2022-09-24T11:17:27.466Z,2.88
2022-09-24T11:20:26.332Z,1.60
2022-09-24T11:23:38.630Z,1.63
2022-09-24T11:26:41.926Z,1.88
2022-09-24T11:29:40.754Z,1.00
2022-09-24T11:32:16.091Z,2.92
2022-09-24T11:35:21.845Z,2.85
2022-09-24T11:38:17.341Z,1.00
2022-09-24T11:41:31.825Z,0.90
2022-09-24T11:45:34.517Z,1.48
2022-09-24T11:48:01.680Z,1.60
2022-09-24T11:50:58.426Z,1.60
2022-09-24T11:53:52.518Z,1.30
2022-09-24T11:57:07.295Z,1.30
2022-09-24T12:00:30.949Z,1.42
2022-09-24T12:03:53.740Z,3.80
2022-09-24T12:07:23.896Z,1.20
2022-09-24T12:10:21.218Z,1.10
2022-09-24T12:12:59.407Z,1.20
2022-09-24T12:15:40.074Z,0.95
2022-09-24T12:18:59.882Z,1.52
2022-09-24T12:21:33.354Z,0.80
2022-09-24T12:24:07.733Z,2.50
2022-09-24T12:26:37.804Z,4.63
2022-09-24T12:29:32.350Z,1.42
2022-09-24T12:32:31.672Z,0.88
2022-09-24T12:35:17.744Z,1.38
2022-09-24T12:37:50.467Z,1.95
2022-09-24T12:40:39.685Z,1.27
2022-09-24T12:43:26.385Z,1.92
2022-09-24T12:46:00.631Z,1.40
2022-09-24T12:48:32.043Z,1.00
2022-09-24T12:51:29.645Z,1.65
2022-09-24T12:54:38.927Z,1.98
2022-09-24T12:57:35.814Z,2.08
2022-09-24T13:00:32.222Z,2.58
2022-09-24T13:03:03.510Z,1.90
2022-09-24T13:05:36.323Z,1.17
2022-09-24T13:08:26.235Z,1.08
2022-09-24T13:11:06.053Z,4.25
2022-09-24T13:13:41.008Z,1.98
2022-09-24T13:16:18.979Z,1.10
2022-09-24T13:19:00.192Z,1.40
2022-09-24T13:21:32.257Z,1.25
2022-09-24T13:23:59.738Z,2.45
2022-09-24T13:26:36.147Z,1.30
2022-09-24T13:29:24.034Z,1.50
2022-09-24T13:31:58.872Z,2.28
2022-09-24T13:34:34.464Z,1.00
2022-09-24T13:37:17.406Z,1.05
2022-09-24T13:39:53.333Z,1.40
2022-09-24T13:42:32.543Z,1.40
2022-09-24T13:45:12.286Z,1.25
2022-09-24T13:47:53.607Z,1.00
2022-09-24T13:50:37.796Z,1.05
2022-09-24T13:53:12.186Z,1.30
2022-09-24T13:55:45.786Z,1.70
2022-09-24T13:58:33.195Z,1.38
2022-09-24T14:01:11.884Z,1.42
2022-09-24T14:03:40.396Z,1.27
2022-09-24T14:06:22.548Z,1.77
2022-09-24T14:08:49.999Z,2.72
2022-09-24T14:11:24.678Z,2.90
2022-09-24T14:13:52.361Z,1.90
2022-09-24T14:16:21.586Z,2.65
2022-09-24T14:18:49.295Z,2.08
2022-09-24T14:21:27.854Z,2.03
2022-09-24T14:24:08.876Z,1.35
2022-09-24T14:27:00.144Z,1.35
2022-09-24T14:29:51.158Z,1.10
2022-09-24T14:32:34.626Z,1.67
2022-09-24T14:35:06.669Z,1.58
2022-09-24T14:37:38.988Z,4.30
2022-09-24T14:40:13.810Z,2.30
2022-09-24T14:42:45.316Z,1.60
2022-09-24T14:45:25.166Z,1.13
2022-09-24T14:48:06.805Z,1.38
2022-09-24T14:50:39.804Z,3.70
2022-09-24T14:53:21.738Z,1.20
2022-09-24T14:55:50.020Z,0.90
2022-09-24T14:58:29.973Z,1.15
2022-09-24T15:01:04.597Z,5.10
2022-09-24T15:03:48.530Z,1.35
2022-09-24T15:06:18.244Z,1.45
2022-09-24T15:08:54.920Z,1.15
2022-09-24T15:11:28.056Z,1.52
2022-09-24T15:14:00.971Z,1.48
2022-09-24T15:16:34.062Z,2.78
2022-09-24T15:19:30.844Z,1.50
2022-09-24T15:21:58.875Z,1.38
2022-09-24T15:24:26.185Z,1.17
2022-09-24T15:27:15.211Z,2.60
2022-09-24T15:29:42.209Z,1.20
2022-09-24T15:32:18.338Z,1.00
2022-09-24T15:34:45.770Z,5.40
2022-09-24T15:37:16.794Z,0.95
2022-09-24T15:39:51.458Z,1.38
2022-09-24T15:42:25.965Z,1.50
2022-09-24T15:44:56.387Z,1.52
2022-09-24T15:47:23.734Z,1.60
2022-09-24T15:49:51.189Z,2.38
2022-09-24T15:52:27.260Z,1.60
2022-09-24T15:55:01.313Z,1.45
2022-09-24T15:57:28.559Z,3.38
2022-09-24T16:00:02.384Z,1.67
2022-09-24T16:02:33.525Z,2.13
2022-09-24T16:05:03.900Z,2.30
2022-09-24T16:07:34.295Z,2.20
2022-09-24T16:10:01.675Z,2.30
2022-09-24T16:12:29.056Z,2.67
2022-09-24T16:15:01.956Z,1.75
2022-09-24T16:17:29.515Z,1.52
2022-09-24T16:19:57.746Z,1.70
2022-09-24T16:22:25.187Z,1.83
2022-09-24T16:24:52.467Z,1.77
2022-09-24T16:27:19.630Z,1.80
2022-09-24T16:29:46.751Z,1.65
2022-09-24T16:32:14.783Z,2.22
2022-09-24T16:34:42.106Z,1.83
2022-09-24T16:37:10.108Z,2.10
2022-09-24T16:39:37.444Z,1.65
2022-09-24T16:42:11.067Z,2.20
2022-09-24T16:44:42.174Z,1.63
2022-09-24T16:47:09.470Z,2.03
2022-09-24T16:49:36.729Z,1.60
2022-09-24T16:52:04.663Z,1.98
2022-09-24T16:54:34.780Z,3.05
2022-09-24T16:57:10.124Z,6.03
2022-09-24T16:59:41.112Z,3.90
2022-09-24T17:02:14.735Z,3.15
2022-09-24T17:04:51.246Z,2.88
2022-09-24T17:07:19.700Z,3.05
2022-09-24T17:10:05.827Z,2.47
2022-09-24T17:12:33.306Z,3.67
2022-09-24T17:15:02.460Z,3.60
2022-09-24T17:17:30.673Z,3.75
2022-09-24T17:19:59.150Z,3.50
2022-09-24T17:22:26.376Z,3.28
2022-09-24T17:24:56.944Z,3.17
2022-09-24T17:27:24.867Z,3.45
2022-09-24T17:29:52.129Z,3.78
2022-09-24T17:32:19.384Z,6.47
2022-09-24T17:34:49.892Z,4.05
2022-09-24T17:37:19.321Z,4.43
2022-09-24T17:39:46.357Z,4.68
2022-09-24T17:42:13.911Z,4.30
2022-09-24T17:44:41.327Z,5.22
2022-09-24T17:47:08.685Z,8.23
2022-09-24T17:49:35.892Z,5.85
2022-09-24T17:52:03.836Z,6.15
2022-09-24T17:54:33.683Z,6.63
2022-09-24T17:57:02.267Z,8.15
2022-09-24T17:59:29.493Z,7.72
2022-09-24T18:01:58.993Z,7.65
2022-09-24T18:04:28.383Z,7.85
2022-09-24T18:07:00.083Z,6.43
2022-09-24T18:09:34.505Z,7.00
2022-09-24T18:12:04.413Z,6.28
2022-09-24T18:14:33.825Z,9.77
2022-09-24T18:17:01.336Z,6.72
2022-09-24T18:19:28.531Z,6.28
2022-09-24T18:22:01.481Z,6.28
2022-09-24T18:24:32.846Z,6.75
2022-09-24T18:27:02.682Z,6.82
2022-09-24T18:29:34.027Z,6.65
2022-09-24T18:32:01.926Z,7.53
2022-09-24T18:34:30.036Z,6.75
2022-09-24T18:36:57.358Z,7.47
2022-09-24T18:39:25.738Z,5.65
2022-09-24T18:41:53.273Z,5.82
2022-09-24T18:44:20.451Z,6.63
2022-09-24T18:46:50.508Z,5.88
2022-09-24T18:49:17.654Z,6.18
2022-09-24T18:51:45.088Z,9.88
2022-09-24T18:54:14.064Z,5.32
2022-09-24T18:56:41.762Z,4.68
2022-09-24T18:59:14.164Z,5.18
2022-09-24T19:01:42.534Z,4.00
2022-09-24T19:04:11.400Z,4.80
2022-09-24T19:06:40.881Z,4.57
2022-09-24T19:09:09.270Z,5.50
2022-09-24T19:11:37.262Z,7.45
2022-09-24T19:14:04.614Z,4.32
2022-09-24T19:16:33.898Z,5.68
2022-09-24T19:19:01.955Z,4.85
2022-09-24T19:21:34.233Z,4.50
2022-09-24T19:24:02.025Z,3.35
2022-09-24T19:26:31.190Z,3.30
2022-09-24T19:28:59.374Z,3.20
2022-09-24T19:31:32.143Z,3.70
2022-09-24T19:34:04.172Z,4.43
2022-09-24T19:36:37.423Z,4.00
2022-09-24T19:39:09.815Z,3.90
2022-09-24T19:41:36.964Z,3.72
2022-09-24T19:44:09.191Z,4.03
2022-09-24T19:46:38.870Z,8.15
2022-09-24T19:49:08.331Z,4.60
2022-09-24T19:51:36.109Z,5.03
2022-09-24T19:54:10.791Z,6.63
2022-09-24T19:56:39.256Z,5.18
2022-09-24T19:59:08.150Z,3.95
2022-09-24T20:01:35.871Z,6.22
2022-09-24T20:04:06.728Z,4.88
2022-09-24T20:06:35.861Z,4.50
2022-09-24T20:09:03.624Z,4.53
2022-09-24T20:11:32.900Z,4.05
2022-09-24T20:14:01.436Z,4.32
2022-09-24T20:16:33.293Z,8.40
2022-09-24T20:19:11.318Z,3.85
2022-09-24T20:21:38.622Z,3.55
2022-09-24T20:24:08.913Z,3.90
2022-09-24T20:26:56.582Z,5.85
2022-09-24T20:31:53.616Z,3.55
2022-09-24T20:34:28.985Z,3.70
2022-09-24T20:39:34.716Z,3.42
2022-09-24T20:42:06.137Z,3.50
2022-09-24T20:44:34.459Z,3.67
2022-09-24T20:47:06.114Z,2.78
2022-09-24T20:49:36.963Z,2.90
2022-09-24T20:52:25.242Z,3.65
2022-09-24T20:54:55.360Z,3.30
2022-09-24T20:57:22.746Z,3.35
2022-09-24T20:59:55.576Z,3.65
2022-09-24T21:02:31.960Z,3.72
2022-09-24T21:05:05.536Z,3.95
2022-09-24T21:07:42.423Z,3.70
2022-09-24T21:10:24.356Z,3.72
2022-09-24T21:13:04.958Z,4.68
2022-09-24T21:15:44.424Z,3.58
2022-09-24T21:18:22.711Z,3.53
2022-09-24T21:21:05.317Z,3.40
2022-09-24T21:23:38.147Z,4.22
2022-09-24T21:26:13.759Z,3.35
2022-09-24T21:28:43.373Z,5.63
2022-09-24T21:31:10.636Z,3.42
2022-09-24T21:33:37.896Z,3.35
2022-09-24T21:36:07.122Z,3.70
2022-09-24T21:38:34.372Z,3.22
2022-09-24T21:41:03.057Z,4.82
2022-09-24T21:43:34.665Z,3.30
2022-09-24T21:46:07.376Z,3.83
2022-09-24T21:48:35.565Z,3.28
2022-09-24T21:51:07.379Z,2.92
2022-09-24T21:53:35.551Z,3.35
2022-09-24T21:56:05.063Z,5.50
2022-09-24T21:58:32.584Z,3.50
2022-09-24T22:01:05.157Z,3.85
2022-09-24T22:03:34.459Z,3.75
2022-09-24T22:06:03.511Z,3.42
2022-09-24T22:08:32.042Z,3.00
2022-09-24T22:11:06.350Z,4.25
2022-09-24T22:13:34.723Z,3.08
2022-09-24T22:16:02.092Z,2.55
2022-09-24T22:18:29.761Z,4.03
2022-09-24T22:20:58.882Z,3.17
2022-09-24T22:23:26.122Z,4.90
2022-09-24T22:26:00.097Z,2.47
2022-09-24T22:28:29.526Z,3.45
2022-09-24T22:30:59.465Z,3.60
2022-09-24T22:33:48.247Z,3.80
2022-09-24T22:36:16.069Z,2.75
2022-09-24T22:38:44.709Z,3.20
2022-09-24T22:41:12.410Z,3.10
2022-09-24T22:43:39.916Z,3.05
2022-09-24T22:46:13.313Z,3.58
2022-09-24T22:48:40.937Z,5.80
2022-09-24T22:51:11.512Z,10.05
2022-09-24T22:53:40.207Z,2.95
2022-09-24T22:56:13.732Z,3.95
2022-09-24T22:58:43.423Z,3.53
2022-09-24T23:01:15.443Z,3.17
2022-09-24T23:03:44.282Z,2.50
2022-09-24T23:06:14.471Z,6.25
2022-09-24T23:08:42.520Z,2.53
2022-09-24T23:11:13.704Z,3.75
2022-09-24T23:13:43.633Z,3.08
2022-09-24T23:16:14.224Z,4.82
2022-09-24T23:18:43.463Z,2.63
2022-09-24T23:21:18.568Z,2.90
2022-09-24T23:23:46.148Z,3.03
2022-09-24T23:26:16.913Z,4.78
2022-09-24T23:28:53.047Z,2.63
2022-09-24T23:31:25.497Z,3.05
2022-09-24T23:33:57.277Z,2.42
2022-09-24T23:36:25.769Z,2.63
2022-09-24T23:38:53.880Z,3.70
2022-09-24T23:41:21.798Z,3.00
2022-09-24T23:43:49.466Z,3.67
2022-09-24T23:46:17.375Z,3.13
2022-09-24T23:48:44.464Z,2.90
2022-09-24T23:51:11.572Z,2.67
2022-09-24T23:53:41.477Z,2.72
2022-09-24T23:56:12.473Z,3.15
2022-09-24T23:58:42.125Z,2.83
